KMDD/MDD METAR and TAF weather

Enter ICAO airport designator
Station Type Date Time Source
KMDD METAR 2021/05/17 22:35 UTC NOAA

KMDD 172235Z AUTO 08007KT 10SM CLR 30/16 A2974 RMK AO2 T02960164


Station Type Date Time Source
KMDD Decoded METAR 2021/05/17 22:35 UTC NOAA

Midland, Midland Airpark, TX, United States (KMDD) 32-02-11N 102-06-03W
May 17, 2021 - 06:35 PM EDT / 2021.05.17 2235 UTC
Wind: from the E (080 degrees) at 8 MPH (7 KT):0
Visibility: 10 mile(s):0
Sky conditions: clear
Temperature: 85.3 F (29.6 C)
Dew Point: 61.5 F (16.4 C)
Relative Humidity: 44%
Pressure (altimeter): 29.74 in. Hg (1007 hPa)
ob: KMDD 172235Z AUTO 08007KT 10SM CLR 30/16 A2974 RMK AO2 T02960164
cycle: 22

Station Type Date Time Source
KMDD TAF UTC NOAA

Error!

Example: see airport list